sensor_id;sensor_type;location;lat;lon;timestamp;P1;durP1;ratioP1;P2;durP2;ratioP2
6523;SDS011;3295;38.928;-77.052;2022-08-19T00:01:46;5.10;;;3.47;;
6523;SDS011;3295;38.928;-77.052;2022-08-19T00:04:14;3.43;;;2.30;;
6523;SDS011;3295;38.928;-77.052;2022-08-19T00:06:42;2.90;;;2.40;;
6523;SDS011;3295;38.928;-77.052;2022-08-19T00:09:10;6.13;;;2.97;;
6523;SDS011;3295;38.928;-77.052;2022-08-19T00:11:39;3.10;;;2.50;;
6523;SDS011;3295;38.928;-77.052;2022-08-19T00:14:07;3.53;;;2.40;;
6523;SDS011;3295;38.928;-77.052;2022-08-19T00:16:35;2.83;;;2.20;;
6523;SDS011;3295;38.928;-77.052;2022-08-19T00:19:02;2.90;;;2.30;;
6523;SDS011;3295;38.928;-77.052;2022-08-19T00:21:30;5.33;;;2.70;;
6523;SDS011;3295;38.928;-77.052;2022-08-19T00:23:57;3.20;;;2.40;;
6523;SDS011;3295;38.928;-77.052;2022-08-19T00:26:25;3.00;;;2.30;;
6523;SDS011;3295;38.928;-77.052;2022-08-19T00:28:54;3.50;;;2.60;;
6523;SDS011;3295;38.928;-77.052;2022-08-19T00:31:21;2.80;;;2.33;;
6523;SDS011;3295;38.928;-77.052;2022-08-19T00:33:50;4.93;;;2.50;;
6523;SDS011;3295;38.928;-77.052;2022-08-19T00:36:17;2.77;;;2.37;;
6523;SDS011;3295;38.928;-77.052;2022-08-19T00:38:45;3.90;;;2.50;;
6523;SDS011;3295;38.928;-77.052;2022-08-19T00:41:12;3.53;;;2.73;;
6523;SDS011;3295;38.928;-77.052;2022-08-19T00:43:41;3.93;;;2.60;;
6523;SDS011;3295;38.928;-77.052;2022-08-19T00:46:10;4.37;;;3.10;;
6523;SDS011;3295;38.928;-77.052;2022-08-19T00:48:37;3.67;;;3.00;;
6523;SDS011;3295;38.928;-77.052;2022-08-19T00:51:04;3.70;;;2.57;;
6523;SDS011;3295;38.928;-77.052;2022-08-19T00:53:32;3.70;;;2.80;;
6523;SDS011;3295;38.928;-77.052;2022-08-19T00:56:01;3.90;;;2.73;;
6523;SDS011;3295;38.928;-77.052;2022-08-19T00:58:32;4.07;;;3.00;;
6523;SDS011;3295;38.928;-77.052;2022-08-19T01:01:00;4.20;;;2.63;;
6523;SDS011;3295;38.928;-77.052;2022-08-19T01:03:28;3.53;;;2.73;;
6523;SDS011;3295;38.928;-77.052;2022-08-19T01:05:56;3.67;;;2.90;;
6523;SDS011;3295;38.928;-77.052;2022-08-19T01:08:23;4.37;;;2.63;;
6523;SDS011;3295;38.928;-77.052;2022-08-19T01:10:51;5.47;;;2.90;;
6523;SDS011;3295;38.928;-77.052;2022-08-19T01:13:20;3.83;;;2.73;;
6523;SDS011;3295;38.928;-77.052;2022-08-19T01:15:48;7.73;;;3.17;;
6523;SDS011;3295;38.928;-77.052;2022-08-19T01:18:17;4.03;;;2.80;;
6523;SDS011;3295;38.928;-77.052;2022-08-19T01:20:46;4.00;;;3.00;;
6523;SDS011;3295;38.928;-77.052;2022-08-19T01:23:15;3.90;;;2.90;;
6523;SDS011;3295;38.928;-77.052;2022-08-19T01:25:44;3.67;;;2.80;;
6523;SDS011;3295;38.928;-77.052;2022-08-19T01:28:15;4.10;;;3.00;;
6523;SDS011;3295;38.928;-77.052;2022-08-19T01:30:43;4.60;;;2.83;;
6523;SDS011;3295;38.928;-77.052;2022-08-19T01:33:11;4.50;;;2.70;;
6523;SDS011;3295;38.928;-77.052;2022-08-19T01:35:39;5.53;;;2.80;;
6523;SDS011;3295;38.928;-77.052;2022-08-19T01:38:07;4.30;;;2.70;;
6523;SDS011;3295;38.928;-77.052;2022-08-19T01:40:38;5.67;;;3.10;;
6523;SDS011;3295;38.928;-77.052;2022-08-19T01:43:07;4.60;;;3.00;;
6523;SDS011;3295;38.928;-77.052;2022-08-19T01:45:35;5.83;;;3.10;;
6523;SDS011;3295;38.928;-77.052;2022-08-19T01:48:03;4.77;;;3.27;;
6523;SDS011;3295;38.928;-77.052;2022-08-19T01:50:30;4.70;;;3.03;;
6523;SDS011;3295;38.928;-77.052;2022-08-19T01:52:58;8.53;;;3.17;;
6523;SDS011;3295;38.928;-77.052;2022-08-19T01:55:26;3.97;;;3.20;;
6523;SDS011;3295;38.928;-77.052;2022-08-19T01:57:55;4.00;;;2.87;;
6523;SDS011;3295;38.928;-77.052;2022-08-19T02:00:24;5.37;;;2.77;;
6523;SDS011;3295;38.928;-77.052;2022-08-19T02:02:51;3.57;;;2.70;;
6523;SDS011;3295;38.928;-77.052;2022-08-19T02:05:18;5.43;;;2.90;;
6523;SDS011;3295;38.928;-77.052;2022-08-19T02:07:47;3.77;;;2.77;;
6523;SDS011;3295;38.928;-77.052;2022-08-19T02:10:15;3.60;;;2.93;;
6523;SDS011;3295;38.928;-77.052;2022-08-19T02:12:43;4.07;;;2.60;;
6523;SDS011;3295;38.928;-77.052;2022-08-19T02:15:11;3.93;;;2.80;;
6523;SDS011;3295;38.928;-77.052;2022-08-19T02:17:39;5.77;;;2.87;;
6523;SDS011;3295;38.928;-77.052;2022-08-19T02:20:07;3.17;;;2.60;;
6523;SDS011;3295;38.928;-77.052;2022-08-19T02:22:34;3.63;;;2.70;;
6523;SDS011;3295;38.928;-77.052;2022-08-19T02:25:02;4.00;;;2.90;;
6523;SDS011;3295;38.928;-77.052;2022-08-19T02:27:30;6.03;;;2.90;;
6523;SDS011;3295;38.928;-77.052;2022-08-19T02:29:59;4.27;;;2.60;;
6523;SDS011;3295;38.928;-77.052;2022-08-19T02:32:28;4.73;;;3.00;;
6523;SDS011;3295;38.928;-77.052;2022-08-19T02:34:55;3.83;;;2.67;;
6523;SDS011;3295;38.928;-77.052;2022-08-19T02:37:23;3.73;;;2.90;;
6523;SDS011;3295;38.928;-77.052;2022-08-19T02:40:07;4.70;;;2.73;;
6523;SDS011;3295;38.928;-77.052;2022-08-19T02:42:34;5.63;;;2.90;;
6523;SDS011;3295;38.928;-77.052;2022-08-19T02:45:02;4.13;;;2.80;;
6523;SDS011;3295;38.928;-77.052;2022-08-19T02:47:32;3.60;;;2.57;;
6523;SDS011;3295;38.928;-77.052;2022-08-19T02:50:00;4.83;;;2.97;;
6523;SDS011;3295;38.928;-77.052;2022-08-19T02:52:27;4.13;;;3.00;;
6523;SDS011;3295;38.928;-77.052;2022-08-19T02:54:54;4.00;;;2.97;;
6523;SDS011;3295;38.928;-77.052;2022-08-19T02:57:22;5.63;;;2.60;;
6523;SDS011;3295;38.928;-77.052;2022-08-19T02:59:50;7.17;;;3.30;;
6523;SDS011;3295;38.928;-77.052;2022-08-19T03:02:17;3.43;;;2.73;;
6523;SDS011;3295;38.928;-77.052;2022-08-19T03:04:46;6.43;;;2.90;;
6523;SDS011;3295;38.928;-77.052;2022-08-19T03:07:13;6.20;;;3.23;;
6523;SDS011;3295;38.928;-77.052;2022-08-19T03:09:41;4.23;;;2.90;;
6523;SDS011;3295;38.928;-77.052;2022-08-19T03:12:09;5.77;;;2.93;;
6523;SDS011;3295;38.928;-77.052;2022-08-19T03:14:36;4.23;;;3.03;;
6523;SDS011;3295;38.928;-77.052;2022-08-19T03:17:04;4.57;;;3.10;;
6523;SDS011;3295;38.928;-77.052;2022-08-19T03:19:31;5.13;;;3.13;;
6523;SDS011;3295;38.928;-77.052;2022-08-19T03:22:00;4.10;;;3.07;;
6523;SDS011;3295;38.928;-77.052;2022-08-19T03:24:27;4.73;;;3.07;;
6523;SDS011;3295;38.928;-77.052;2022-08-19T03:26:56;6.80;;;3.30;;
6523;SDS011;3295;38.928;-77.052;2022-08-19T03:29:24;4.30;;;3.13;;
6523;SDS011;3295;38.928;-77.052;2022-08-19T03:31:51;4.90;;;3.13;;
6523;SDS011;3295;38.928;-77.052;2022-08-19T03:34:21;3.70;;;2.97;;
6523;SDS011;3295;38.928;-77.052;2022-08-19T03:36:51;4.63;;;3.27;;
6523;SDS011;3295;38.928;-77.052;2022-08-19T03:39:20;5.03;;;3.20;;
6523;SDS011;3295;38.928;-77.052;2022-08-19T03:41:48;6.27;;;3.10;;
6523;SDS011;3295;38.928;-77.052;2022-08-19T03:44:16;5.97;;;2.80;;
6523;SDS011;3295;38.928;-77.052;2022-08-19T03:46:46;4.27;;;2.80;;
6523;SDS011;3295;38.928;-77.052;2022-08-19T03:49:13;3.93;;;3.00;;
6523;SDS011;3295;38.928;-77.052;2022-08-19T03:51:41;3.90;;;3.17;;
6523;SDS011;3295;38.928;-77.052;2022-08-19T03:54:09;5.00;;;3.00;;
6523;SDS011;3295;38.928;-77.052;2022-08-19T03:56:39;3.63;;;2.80;;
6523;SDS011;3295;38.928;-77.052;2022-08-19T03:59:07;6.47;;;3.00;;
6523;SDS011;3295;38.928;-77.052;2022-08-19T04:01:35;3.93;;;2.93;;
6523;SDS011;3295;38.928;-77.052;2022-08-19T04:04:02;5.87;;;3.30;;
6523;SDS011;3295;38.928;-77.052;2022-08-19T04:06:31;4.00;;;3.00;;
6523;SDS011;3295;38.928;-77.052;2022-08-19T04:08:59;4.57;;;3.20;;
6523;SDS011;3295;38.928;-77.052;2022-08-19T04:11:27;4.70;;;3.50;;
6523;SDS011;3295;38.928;-77.052;2022-08-19T04:13:57;3.93;;;3.00;;
6523;SDS011;3295;38.928;-77.052;2022-08-19T04:16:27;5.43;;;3.53;;
6523;SDS011;3295;38.928;-77.052;2022-08-19T04:18:55;5.40;;;3.10;;
6523;SDS011;3295;38.928;-77.052;2022-08-19T04:21:23;4.40;;;3.10;;
6523;SDS011;3295;38.928;-77.052;2022-08-19T04:23:50;4.10;;;3.10;;
6523;SDS011;3295;38.928;-77.052;2022-08-19T04:26:19;3.53;;;3.03;;
6523;SDS011;3295;38.928;-77.052;2022-08-19T04:28:46;4.93;;;2.83;;
6523;SDS011;3295;38.928;-77.052;2022-08-19T04:31:16;4.67;;;3.40;;
6523;SDS011;3295;38.928;-77.052;2022-08-19T04:33:43;4.57;;;3.07;;
6523;SDS011;3295;38.928;-77.052;2022-08-19T04:36:15;6.97;;;3.40;;
6523;SDS011;3295;38.928;-77.052;2022-08-19T04:38:42;7.43;;;3.60;;
6523;SDS011;3295;38.928;-77.052;2022-08-19T04:41:10;3.70;;;3.07;;
6523;SDS011;3295;38.928;-77.052;2022-08-19T04:43:54;4.93;;;3.30;;
6523;SDS011;3295;38.928;-77.052;2022-08-19T04:46:23;4.17;;;3.17;;
6523;SDS011;3295;38.928;-77.052;2022-08-19T04:48:50;4.40;;;3.30;;
6523;SDS011;3295;38.928;-77.052;2022-08-19T04:51:18;4.10;;;3.07;;
6523;SDS011;3295;38.928;-77.052;2022-08-19T04:53:46;3.70;;;2.97;;
6523;SDS011;3295;38.928;-77.052;2022-08-19T04:56:13;4.83;;;3.30;;
6523;SDS011;3295;38.928;-77.052;2022-08-19T04:58:41;5.20;;;3.63;;
6523;SDS011;3295;38.928;-77.052;2022-08-19T05:01:09;4.57;;;3.33;;
6523;SDS011;3295;38.928;-77.052;2022-08-19T05:03:39;5.77;;;3.60;;
6523;SDS011;3295;38.928;-77.052;2022-08-19T05:06:07;7.33;;;3.80;;
6523;SDS011;3295;38.928;-77.052;2022-08-19T05:08:35;5.77;;;3.40;;
6523;SDS011;3295;38.928;-77.052;2022-08-19T05:11:07;4.23;;;3.20;;
6523;SDS011;3295;38.928;-77.052;2022-08-19T05:13:34;4.73;;;3.67;;
6523;SDS011;3295;38.928;-77.052;2022-08-19T05:16:01;4.60;;;3.50;;
6523;SDS011;3295;38.928;-77.052;2022-08-19T05:18:28;4.40;;;3.60;;
6523;SDS011;3295;38.928;-77.052;2022-08-19T05:21:29;4.70;;;3.23;;
6523;SDS011;3295;38.928;-77.052;2022-08-19T05:24:14;4.30;;;3.30;;
6523;SDS011;3295;38.928;-77.052;2022-08-19T05:26:41;4.27;;;3.30;;
6523;SDS011;3295;38.928;-77.052;2022-08-19T05:29:11;6.13;;;3.67;;
6523;SDS011;3295;38.928;-77.052;2022-08-19T05:31:39;4.17;;;3.37;;
6523;SDS011;3295;38.928;-77.052;2022-08-19T05:34:06;6.13;;;3.50;;
6523;SDS011;3295;38.928;-77.052;2022-08-19T05:36:37;4.60;;;3.67;;
6523;SDS011;3295;38.928;-77.052;2022-08-19T05:39:05;6.83;;;3.70;;
6523;SDS011;3295;38.928;-77.052;2022-08-19T05:41:32;4.97;;;3.40;;
6523;SDS011;3295;38.928;-77.052;2022-08-19T05:44:01;5.20;;;3.70;;
6523;SDS011;3295;38.928;-77.052;2022-08-19T05:46:31;5.37;;;3.30;;
6523;SDS011;3295;38.928;-77.052;2022-08-19T05:48:58;5.20;;;3.80;;
6523;SDS011;3295;38.928;-77.052;2022-08-19T05:51:25;4.80;;;3.27;;
6523;SDS011;3295;38.928;-77.052;2022-08-19T05:53:54;4.87;;;3.57;;
6523;SDS011;3295;38.928;-77.052;2022-08-19T05:56:21;5.00;;;3.70;;
6523;SDS011;3295;38.928;-77.052;2022-08-19T05:58:48;4.50;;;3.47;;
6523;SDS011;3295;38.928;-77.052;2022-08-19T06:01:16;6.53;;;3.80;;
6523;SDS011;3295;38.928;-77.052;2022-08-19T06:03:43;5.17;;;3.77;;
6523;SDS011;3295;38.928;-77.052;2022-08-19T06:06:12;5.30;;;3.50;;
6523;SDS011;3295;38.928;-77.052;2022-08-19T06:08:40;5.30;;;3.80;;
6523;SDS011;3295;38.928;-77.052;2022-08-19T06:11:13;6.57;;;3.83;;
6523;SDS011;3295;38.928;-77.052;2022-08-19T06:13:41;4.67;;;3.37;;
6523;SDS011;3295;38.928;-77.052;2022-08-19T06:16:08;7.50;;;3.67;;
6523;SDS011;3295;38.928;-77.052;2022-08-19T06:18:35;4.83;;;3.70;;
6523;SDS011;3295;38.928;-77.052;2022-08-19T06:21:02;4.83;;;3.50;;
6523;SDS011;3295;38.928;-77.052;2022-08-19T06:23:30;4.70;;;3.47;;
6523;SDS011;3295;38.928;-77.052;2022-08-19T06:25:57;5.73;;;3.60;;
6523;SDS011;3295;38.928;-77.052;2022-08-19T06:28:26;4.60;;;3.33;;
6523;SDS011;3295;38.928;-77.052;2022-08-19T06:30:53;5.57;;;3.53;;
6523;SDS011;3295;38.928;-77.052;2022-08-19T06:33:20;4.67;;;3.70;;
6523;SDS011;3295;38.928;-77.052;2022-08-19T06:35:47;6.53;;;3.73;;
6523;SDS011;3295;38.928;-77.052;2022-08-19T06:38:15;4.33;;;3.40;;
6523;SDS011;3295;38.928;-77.052;2022-08-19T06:40:42;5.70;;;3.37;;
6523;SDS011;3295;38.928;-77.052;2022-08-19T06:43:09;6.70;;;3.70;;
6523;SDS011;3295;38.928;-77.052;2022-08-19T06:45:38;4.23;;;3.33;;
6523;SDS011;3295;38.928;-77.052;2022-08-19T06:48:05;4.73;;;3.50;;
6523;SDS011;3295;38.928;-77.052;2022-08-19T06:50:32;7.63;;;3.97;;
6523;SDS011;3295;38.928;-77.052;2022-08-19T06:53:01;6.10;;;4.00;;
6523;SDS011;3295;38.928;-77.052;2022-08-19T06:55:31;9.40;;;3.87;;
6523;SDS011;3295;38.928;-77.052;2022-08-19T06:57:58;5.80;;;4.03;;
6523;SDS011;3295;38.928;-77.052;2022-08-19T07:00:30;6.13;;;3.50;;
6523;SDS011;3295;38.928;-77.052;2022-08-19T07:02:59;7.33;;;3.83;;
6523;SDS011;3295;38.928;-77.052;2022-08-19T07:05:27;10.13;;;3.90;;
6523;SDS011;3295;38.928;-77.052;2022-08-19T07:07:54;5.60;;;3.97;;
6523;SDS011;3295;38.928;-77.052;2022-08-19T07:10:21;5.03;;;3.53;;
6523;SDS011;3295;38.928;-77.052;2022-08-19T07:12:48;5.23;;;3.87;;
6523;SDS011;3295;38.928;-77.052;2022-08-19T07:15:16;5.80;;;3.83;;
6523;SDS011;3295;38.928;-77.052;2022-08-19T07:17:43;5.90;;;3.90;;
6523;SDS011;3295;38.928;-77.052;2022-08-19T07:20:12;5.53;;;3.80;;
6523;SDS011;3295;38.928;-77.052;2022-08-19T07:22:39;4.27;;;3.40;;
6523;SDS011;3295;38.928;-77.052;2022-08-19T07:25:07;5.40;;;3.70;;
6523;SDS011;3295;38.928;-77.052;2022-08-19T07:27:35;8.07;;;3.80;;
6523;SDS011;3295;38.928;-77.052;2022-08-19T07:30:03;7.33;;;3.73;;
6523;SDS011;3295;38.928;-77.052;2022-08-19T07:32:30;6.23;;;3.90;;
6523;SDS011;3295;38.928;-77.052;2022-08-19T07:34:57;6.03;;;3.87;;
6523;SDS011;3295;38.928;-77.052;2022-08-19T07:37:27;5.17;;;3.60;;
6523;SDS011;3295;38.928;-77.052;2022-08-19T07:39:54;5.10;;;3.73;;
6523;SDS011;3295;38.928;-77.052;2022-08-19T07:42:21;6.37;;;4.20;;
6523;SDS011;3295;38.928;-77.052;2022-08-19T07:44:48;4.93;;;3.47;;
6523;SDS011;3295;38.928;-77.052;2022-08-19T07:47:15;4.83;;;3.80;;
6523;SDS011;3295;38.928;-77.052;2022-08-19T07:49:43;5.50;;;3.80;;
6523;SDS011;3295;38.928;-77.052;2022-08-19T07:52:10;5.27;;;4.10;;
6523;SDS011;3295;38.928;-77.052;2022-08-19T07:54:39;5.33;;;3.90;;
6523;SDS011;3295;38.928;-77.052;2022-08-19T07:57:06;5.10;;;4.00;;
6523;SDS011;3295;38.928;-77.052;2022-08-19T07:59:34;7.07;;;4.13;;
6523;SDS011;3295;38.928;-77.052;2022-08-19T08:02:01;4.93;;;3.40;;
6523;SDS011;3295;38.928;-77.052;2022-08-19T08:04:28;4.57;;;3.60;;
6523;SDS011;3295;38.928;-77.052;2022-08-19T08:07:13;5.23;;;3.70;;
6523;SDS011;3295;38.928;-77.052;2022-08-19T08:09:55;5.50;;;3.93;;
6523;SDS011;3295;38.928;-77.052;2022-08-19T08:12:24;6.83;;;4.03;;
6523;SDS011;3295;38.928;-77.052;2022-08-19T08:14:54;6.40;;;4.17;;
6523;SDS011;3295;38.928;-77.052;2022-08-19T08:17:22;6.33;;;4.10;;
6523;SDS011;3295;38.928;-77.052;2022-08-19T08:19:50;4.37;;;3.37;;
6523;SDS011;3295;38.928;-77.052;2022-08-19T08:22:18;5.40;;;3.70;;
6523;SDS011;3295;38.928;-77.052;2022-08-19T08:25:03;6.70;;;4.17;;
6523;SDS011;3295;38.928;-77.052;2022-08-19T08:27:31;4.90;;;4.00;;
6523;SDS011;3295;38.928;-77.052;2022-08-19T08:29:58;5.30;;;4.13;;
6523;SDS011;3295;38.928;-77.052;2022-08-19T08:32:25;6.17;;;4.03;;
6523;SDS011;3295;38.928;-77.052;2022-08-19T08:34:52;7.43;;;4.20;;
6523;SDS011;3295;38.928;-77.052;2022-08-19T08:37:19;5.27;;;3.83;;
6523;SDS011;3295;38.928;-77.052;2022-08-19T08:39:47;5.90;;;4.03;;
6523;SDS011;3295;38.928;-77.052;2022-08-19T08:42:19;5.23;;;3.80;;
6523;SDS011;3295;38.928;-77.052;2022-08-19T08:44:50;5.87;;;3.50;;
6523;SDS011;3295;38.928;-77.052;2022-08-19T08:47:19;6.17;;;3.73;;
6523;SDS011;3295;38.928;-77.052;2022-08-19T08:49:48;4.97;;;3.83;;
6523;SDS011;3295;38.928;-77.052;2022-08-19T08:52:19;5.40;;;3.83;;
6523;SDS011;3295;38.928;-77.052;2022-08-19T08:54:48;5.50;;;4.10;;
6523;SDS011;3295;38.928;-77.052;2022-08-19T08:57:21;5.67;;;3.70;;
6523;SDS011;3295;38.928;-77.052;2022-08-19T08:59:50;5.20;;;3.70;;
6523;SDS011;3295;38.928;-77.052;2022-08-19T09:02:18;6.17;;;4.23;;
6523;SDS011;3295;38.928;-77.052;2022-08-19T09:04:45;5.07;;;3.80;;
6523;SDS011;3295;38.928;-77.052;2022-08-19T09:07:20;7.00;;;4.10;;
6523;SDS011;3295;38.928;-77.052;2022-08-19T09:09:50;6.23;;;4.07;;
6523;SDS011;3295;38.928;-77.052;2022-08-19T09:12:19;5.47;;;3.80;;
6523;SDS011;3295;38.928;-77.052;2022-08-19T09:14:48;5.37;;;3.80;;
6523;SDS011;3295;38.928;-77.052;2022-08-19T09:17:16;6.57;;;3.90;;
6523;SDS011;3295;38.928;-77.052;2022-08-19T09:19:50;6.10;;;3.97;;
6523;SDS011;3295;38.928;-77.052;2022-08-19T09:22:18;7.10;;;3.87;;
6523;SDS011;3295;38.928;-77.052;2022-08-19T09:24:47;5.47;;;3.90;;
6523;SDS011;3295;38.928;-77.052;2022-08-19T09:27:14;5.77;;;4.00;;
6523;SDS011;3295;38.928;-77.052;2022-08-19T09:29:43;5.33;;;3.80;;
6523;SDS011;3295;38.928;-77.052;2022-08-19T09:32:10;6.70;;;3.90;;
6523;SDS011;3295;38.928;-77.052;2022-08-19T09:34:37;6.00;;;4.30;;
6523;SDS011;3295;38.928;-77.052;2022-08-19T09:37:04;5.63;;;4.00;;
6523;SDS011;3295;38.928;-77.052;2022-08-19T09:39:32;6.13;;;4.03;;
6523;SDS011;3295;38.928;-77.052;2022-08-19T09:41:59;6.23;;;4.30;;
6523;SDS011;3295;38.928;-77.052;2022-08-19T09:44:26;6.00;;;4.43;;
6523;SDS011;3295;38.928;-77.052;2022-08-19T09:46:55;6.57;;;4.50;;
6523;SDS011;3295;38.928;-77.052;2022-08-19T09:49:22;6.63;;;4.17;;
6523;SDS011;3295;38.928;-77.052;2022-08-19T09:51:50;4.97;;;3.73;;
6523;SDS011;3295;38.928;-77.052;2022-08-19T09:54:17;6.57;;;4.00;;
6523;SDS011;3295;38.928;-77.052;2022-08-19T09:56:44;8.47;;;4.37;;
6523;SDS011;3295;38.928;-77.052;2022-08-19T09:59:11;6.07;;;3.83;;
6523;SDS011;3295;38.928;-77.052;2022-08-19T10:01:38;5.70;;;4.00;;
6523;SDS011;3295;38.928;-77.052;2022-08-19T10:04:07;6.00;;;3.97;;
6523;SDS011;3295;38.928;-77.052;2022-08-19T10:06:35;7.20;;;4.23;;
6523;SDS011;3295;38.928;-77.052;2022-08-19T10:09:03;6.20;;;4.10;;
6523;SDS011;3295;38.928;-77.052;2022-08-19T10:11:31;4.50;;;3.80;;
6523;SDS011;3295;38.928;-77.052;2022-08-19T10:13:58;6.07;;;4.50;;
6523;SDS011;3295;38.928;-77.052;2022-08-19T10:16:26;8.80;;;4.50;;
6523;SDS011;3295;38.928;-77.052;2022-08-19T10:18:53;5.47;;;4.07;;
6523;SDS011;3295;38.928;-77.052;2022-08-19T10:21:23;7.13;;;4.20;;
6523;SDS011;3295;38.928;-77.052;2022-08-19T10:23:51;7.30;;;4.10;;
6523;SDS011;3295;38.928;-77.052;2022-08-19T10:26:19;8.03;;;4.40;;
6523;SDS011;3295;38.928;-77.052;2022-08-19T10:28:47;6.27;;;4.50;;
6523;SDS011;3295;38.928;-77.052;2022-08-19T10:31:15;7.13;;;4.30;;
6523;SDS011;3295;38.928;-77.052;2022-08-19T10:33:45;7.80;;;4.10;;
6523;SDS011;3295;38.928;-77.052;2022-08-19T10:36:13;5.03;;;3.77;;
6523;SDS011;3295;38.928;-77.052;2022-08-19T10:38:44;6.73;;;4.37;;
6523;SDS011;3295;38.928;-77.052;2022-08-19T10:41:12;9.17;;;4.30;;
6523;SDS011;3295;38.928;-77.052;2022-08-19T10:43:40;7.17;;;4.33;;
6523;SDS011;3295;38.928;-77.052;2022-08-19T10:46:08;5.63;;;4.17;;
6523;SDS011;3295;38.928;-77.052;2022-08-19T10:48:35;7.20;;;4.80;;
6523;SDS011;3295;38.928;-77.052;2022-08-19T10:51:02;6.23;;;4.50;;
6523;SDS011;3295;38.928;-77.052;2022-08-19T10:53:48;8.37;;;4.57;;
6523;SDS011;3295;38.928;-77.052;2022-08-19T10:56:16;6.83;;;4.50;;
6523;SDS011;3295;38.928;-77.052;2022-08-19T10:59:00;5.20;;;3.90;;
6523;SDS011;3295;38.928;-77.052;2022-08-19T11:01:28;8.57;;;4.43;;
6523;SDS011;3295;38.928;-77.052;2022-08-19T11:03:56;7.23;;;4.20;;
6523;SDS011;3295;38.928;-77.052;2022-08-19T11:06:23;6.50;;;4.07;;
6523;SDS011;3295;38.928;-77.052;2022-08-19T11:08:53;6.87;;;4.17;;
6523;SDS011;3295;38.928;-77.052;2022-08-19T11:11:20;5.90;;;4.00;;
6523;SDS011;3295;38.928;-77.052;2022-08-19T11:13:48;7.17;;;4.10;;
6523;SDS011;3295;38.928;-77.052;2022-08-19T11:16:16;5.07;;;4.13;;
6523;SDS011;3295;38.928;-77.052;2022-08-19T11:18:44;6.40;;;4.17;;
6523;SDS011;3295;38.928;-77.052;2022-08-19T11:21:12;4.67;;;3.83;;
6523;SDS011;3295;38.928;-77.052;2022-08-19T11:23:40;7.03;;;4.30;;
6523;SDS011;3295;38.928;-77.052;2022-08-19T11:26:08;8.13;;;4.63;;
6523;SDS011;3295;38.928;-77.052;2022-08-19T11:28:36;7.53;;;4.40;;
6523;SDS011;3295;38.928;-77.052;2022-08-19T11:31:04;6.20;;;4.23;;
6523;SDS011;3295;38.928;-77.052;2022-08-19T11:33:31;6.83;;;4.43;;
6523;SDS011;3295;38.928;-77.052;2022-08-19T11:35:58;6.07;;;4.23;;
6523;SDS011;3295;38.928;-77.052;2022-08-19T11:38:26;9.03;;;4.47;;
6523;SDS011;3295;38.928;-77.052;2022-08-19T11:40:54;9.13;;;4.80;;
6523;SDS011;3295;38.928;-77.052;2022-08-19T11:43:23;6.83;;;4.90;;
6523;SDS011;3295;38.928;-77.052;2022-08-19T11:45:52;8.53;;;5.30;;
6523;SDS011;3295;38.928;-77.052;2022-08-19T11:48:19;6.90;;;5.13;;
6523;SDS011;3295;38.928;-77.052;2022-08-19T11:50:47;7.20;;;5.07;;
6523;SDS011;3295;38.928;-77.052;2022-08-19T11:53:14;6.60;;;5.13;;
6523;SDS011;3295;38.928;-77.052;2022-08-19T11:55:42;10.87;;;5.47;;
6523;SDS011;3295;38.928;-77.052;2022-08-19T11:58:10;8.77;;;5.73;;
6523;SDS011;3295;38.928;-77.052;2022-08-19T12:00:39;7.67;;;5.50;;
6523;SDS011;3295;38.928;-77.052;2022-08-19T12:03:07;7.83;;;5.37;;
6523;SDS011;3295;38.928;-77.052;2022-08-19T12:05:36;8.00;;;5.60;;
6523;SDS011;3295;38.928;-77.052;2022-08-19T12:08:03;6.57;;;4.87;;
6523;SDS011;3295;38.928;-77.052;2022-08-19T12:10:30;7.53;;;5.33;;
6523;SDS011;3295;38.928;-77.052;2022-08-19T12:12:58;6.17;;;4.80;;
6523;SDS011;3295;38.928;-77.052;2022-08-19T12:15:25;6.50;;;4.70;;
6523;SDS011;3295;38.928;-77.052;2022-08-19T12:17:56;7.20;;;4.77;;
6523;SDS011;3295;38.928;-77.052;2022-08-19T12:20:23;7.47;;;5.27;;
6523;SDS011;3295;38.928;-77.052;2022-08-19T12:22:51;6.53;;;4.87;;
6523;SDS011;3295;38.928;-77.052;2022-08-19T12:25:18;8.20;;;5.10;;
6523;SDS011;3295;38.928;-77.052;2022-08-19T12:27:46;7.20;;;4.80;;
6523;SDS011;3295;38.928;-77.052;2022-08-19T12:30:13;7.87;;;5.10;;
6523;SDS011;3295;38.928;-77.052;2022-08-19T12:32:40;8.40;;;5.40;;
6523;SDS011;3295;38.928;-77.052;2022-08-19T12:35:09;7.13;;;5.17;;
6523;SDS011;3295;38.928;-77.052;2022-08-19T12:37:37;7.63;;;4.77;;
6523;SDS011;3295;38.928;-77.052;2022-08-19T12:40:04;7.27;;;5.20;;
6523;SDS011;3295;38.928;-77.052;2022-08-19T12:42:31;6.73;;;5.17;;
6523;SDS011;3295;38.928;-77.052;2022-08-19T12:45:00;7.70;;;5.23;;
6523;SDS011;3295;38.928;-77.052;2022-08-19T12:47:27;6.87;;;4.63;;
6523;SDS011;3295;38.928;-77.052;2022-08-19T12:49:54;6.40;;;4.60;;
6523;SDS011;3295;38.928;-77.052;2022-08-19T12:52:24;7.53;;;5.10;;
6523;SDS011;3295;38.928;-77.052;2022-08-19T12:54:52;9.23;;;4.83;;
6523;SDS011;3295;38.928;-77.052;2022-08-19T12:57:20;7.07;;;4.67;;
6523;SDS011;3295;38.928;-77.052;2022-08-19T12:59:47;5.40;;;4.10;;
6523;SDS011;3295;38.928;-77.052;2022-08-19T13:02:18;8.13;;;4.63;;
6523;SDS011;3295;38.928;-77.052;2022-08-19T13:04:46;7.03;;;4.43;;
6523;SDS011;3295;38.928;-77.052;2022-08-19T13:07:13;7.43;;;4.90;;
6523;SDS011;3295;38.928;-77.052;2022-08-19T13:09:42;6.00;;;4.40;;
6523;SDS011;3295;38.928;-77.052;2022-08-19T13:12:10;8.47;;;4.37;;
6523;SDS011;3295;38.928;-77.052;2022-08-19T13:14:38;7.17;;;4.63;;
6523;SDS011;3295;38.928;-77.052;2022-08-19T13:17:05;6.63;;;4.70;;
6523;SDS011;3295;38.928;-77.052;2022-08-19T13:19:35;9.53;;;4.60;;
6523;SDS011;3295;38.928;-77.052;2022-08-19T13:22:02;6.60;;;4.40;;
6523;SDS011;3295;38.928;-77.052;2022-08-19T13:24:29;7.00;;;4.27;;
6523;SDS011;3295;38.928;-77.052;2022-08-19T13:27:00;6.73;;;4.70;;
6523;SDS011;3295;38.928;-77.052;2022-08-19T13:29:27;7.13;;;4.57;;
6523;SDS011;3295;38.928;-77.052;2022-08-19T13:32:11;5.83;;;4.50;;
6523;SDS011;3295;38.928;-77.052;2022-08-19T13:34:55;7.97;;;4.93;;
6523;SDS011;3295;38.928;-77.052;2022-08-19T13:37:22;8.90;;;5.20;;
6523;SDS011;3295;38.928;-77.052;2022-08-19T13:40:03;5.33;;;4.10;;
6523;SDS011;3295;38.928;-77.052;2022-08-19T13:42:32;6.97;;;4.40;;
6523;SDS011;3295;38.928;-77.052;2022-08-19T13:45:00;7.30;;;4.50;;
6523;SDS011;3295;38.928;-77.052;2022-08-19T13:47:27;6.00;;;4.40;;
6523;SDS011;3295;38.928;-77.052;2022-08-19T13:49:54;9.53;;;5.00;;
6523;SDS011;3295;38.928;-77.052;2022-08-19T13:52:21;5.30;;;4.10;;
6523;SDS011;3295;38.928;-77.052;2022-08-19T13:54:48;6.40;;;4.57;;
6523;SDS011;3295;38.928;-77.052;2022-08-19T13:57:16;7.70;;;4.47;;
6523;SDS011;3295;38.928;-77.052;2022-08-19T13:59:45;6.33;;;4.40;;
6523;SDS011;3295;38.928;-77.052;2022-08-19T14:02:12;5.63;;;4.37;;
6523;SDS011;3295;38.928;-77.052;2022-08-19T14:04:39;6.37;;;4.27;;
6523;SDS011;3295;38.928;-77.052;2022-08-19T14:07:06;6.30;;;4.33;;
6523;SDS011;3295;38.928;-77.052;2022-08-19T14:09:34;6.13;;;4.40;;
6523;SDS011;3295;38.928;-77.052;2022-08-19T14:12:02;6.87;;;4.50;;
6523;SDS011;3295;38.928;-77.052;2022-08-19T14:14:30;7.67;;;4.53;;
6523;SDS011;3295;38.928;-77.052;2022-08-19T14:16:59;5.80;;;4.27;;
6523;SDS011;3295;38.928;-77.052;2022-08-19T14:19:26;6.73;;;4.80;;
6523;SDS011;3295;38.928;-77.052;2022-08-19T14:21:54;6.80;;;4.30;;
6523;SDS011;3295;38.928;-77.052;2022-08-19T14:24:22;7.50;;;4.77;;
6523;SDS011;3295;38.928;-77.052;2022-08-19T14:26:50;6.90;;;4.80;;
6523;SDS011;3295;38.928;-77.052;2022-08-19T14:29:17;7.10;;;4.90;;
6523;SDS011;3295;38.928;-77.052;2022-08-19T14:31:44;6.87;;;4.87;;
6523;SDS011;3295;38.928;-77.052;2022-08-19T14:34:13;7.27;;;5.00;;
6523;SDS011;3295;38.928;-77.052;2022-08-19T14:36:40;8.30;;;5.43;;
6523;SDS011;3295;38.928;-77.052;2022-08-19T14:39:07;6.80;;;4.93;;
6523;SDS011;3295;38.928;-77.052;2022-08-19T14:41:35;6.67;;;5.07;;
6523;SDS011;3295;38.928;-77.052;2022-08-19T14:44:02;7.93;;;5.03;;
6523;SDS011;3295;38.928;-77.052;2022-08-19T14:46:30;6.73;;;4.60;;
6523;SDS011;3295;38.928;-77.052;2022-08-19T14:48:57;8.73;;;4.77;;
6523;SDS011;3295;38.928;-77.052;2022-08-19T14:51:25;6.63;;;4.60;;
6523;SDS011;3295;38.928;-77.052;2022-08-19T14:53:53;7.40;;;5.10;;
6523;SDS011;3295;38.928;-77.052;2022-08-19T14:56:21;6.50;;;4.80;;